Littleport, Iowa
Current Conditions -  °F | °C
As of 11:55 AM on Sunday 21 Dec 2014 (Local Time) from KPDC Reporting Station
Overcast Overcast  
Wind Chill: 33°   Ceiling: 1400
Heat Index: 38°   Visibility: 7mi
Dew Point: 33°   Wind: 8mph
Humidity: 81%   Direction: 140°SE
Pressure: 29.97"   Gusts: 17mph
Location:  42.75°N, 91.37°W
Report Text: KPDC 211755Z AUTO 14007G15KT 7SM OVC014 04/01 A2997 RMK AO2 T00360006 10036 20005
Loading
Personal Weather Stations






























Interactive Weather Map New forecast layout! Learn more

10-Day Weather Forecast

Advertisements
Track Severe Weather on mobile